Main page
METAR-TAF:

METAR-TAF

Airports :

Zahedan Airport

Zahedan, Iran

latitude: 29-28N, longitude: 060-53E, elevation: 1370 m

Current weather observation

The report was made 33 minutes ago, at 04:00 UTC
Calm wind
Temperature 32°C
Humidity 17%
Pressure 1008 hPa
Visibility: 7000 m

METAR: OIZH 220400Z 00000KT 7000 NSC 32/04 Q1008 A2977 NOSIG

Time: 09:03 (04:33 UTC)

Forecast

The report was made 5 hours and 33 minutes ago, at 23:00 UTC
Forecast valid from 22 at 00 UTC to 23 at 06 UTC
Wind 6 kt from the Northwest
Visibility: 7000 m
Temporary
from 22 at 12 UTC to 22 at 18 UTC
Wind 16 kt from the West/Northwest

TAF: OIZH 212300Z 2200/2306 32003MPS 7000 NSC TEMPO 2212/2218 30008MPS

Weather observations and forecasts of more than 4000 airports (METAR and TAF reports).

The available stations are represented by yellow and red dots on the map.

Hover mouse over dot to see the name of the station.

Then click to see weather observations and forecasts.

To change the map : click on the green buttons with a black cross to zoom in, on the green button with a dash to zoom out, or on the green arrows for adjacent maps.


METAR-TAF: